Observations de surface / UK / EGXC

Québec | Canada | États-Unis | France | UK | Europe | Ailleurs

Affichage: Infos & localisation pour EGXC | Aide pour décoder les METARs

EGXC CONINGSBY RAF -- UK
Raw surface observations for station EGXC
EGXC 211650Z 12006KT 9999 OVC013 04/03 Q1026 GRN=
EGXC 211550Z 09005KT 9999 BKN016 05/03 Q1026 WHT=
EGXC 211450Z 11006KT 9999 OVC014 05/03 Q1027 GRN=
EGXC 211350Z 09005KT 9999 OVC015 05/03 Q1027 WHT=
EGXC 211250Z 10004KT 9999 OVC014 05/03 Q1028 GRN=
EGXC 211150Z 10005KT 9999 BKN016 05/03 Q1029 WHT=
EGXC 211050Z 11008KT 9999 BKN016 05/03 Q1030 WHT=
EGXC 210950Z 10005KT 9999 BKN015 04/03 Q1030 WHT=
EGXC 210850Z 10007KT 9999 BKN013 03/02 Q1030 GRN=
EGXC 210750Z 11007KT 9999 BKN012 03/02 Q1030 GRN=
EGXC 210650Z 10009KT 9999 BKN012 03/02 Q1030 GRN=
EGXC 210550Z 09007KT 7000 BR BKN012 01/01 Q1031 GRN=
EGXC 210450Z 09006KT 6000 BR SKC 00/M00 Q1031 WHT=
EGXC 210350Z 08006KT 7000 BR SKC 01/00 Q1031 WHT=
EGXC 210250Z 08006KT 8000 BR FEW250 02/02 Q1032 BLU=
EGXC 210150Z 08005KT CAVOK 02/02 Q1032 BLU=
EGXC 210050Z 08007KT CAVOK 02/01 Q1032 BLU=
EGXC 202350Z 08007KT CAVOK 02/00 Q1032 BLU=
EGXC 202250Z 07007KT 7000 HZ BKN230 03/02 Q1033 WHT=
EGXC 202150Z 08008KT 6000 BR BKN240 03/02 Q1033 WHT=
EGXC 202050Z 08007KT 6000 BR BKN220 03/03 Q1033 WHT=
EGXC 201950Z 08007KT 7000 BR BKN250 03/02 Q1033 WHT=
EGXC 201850Z 08007KT 8000 BR BKN250 02/02 Q1034 BLU=
EGXC 201750Z 08006KT CAVOK 03/02 Q1034 BLU=